createdAt,value
2023-07-06T00:00:31.144Z,26.63
2023-07-06T00:02:36.920Z,26.63
2023-07-06T00:04:42.654Z,26.64
2023-07-06T00:06:48.078Z,26.62
2023-07-06T00:08:53.538Z,26.6
2023-07-06T00:10:59.074Z,26.61
2023-07-06T00:13:04.816Z,26.6
2023-07-06T00:15:10.506Z,26.59
2023-07-06T00:17:15.992Z,26.6
2023-07-06T00:19:21.446Z,26.61
2023-07-06T00:21:27.001Z,26.6
2023-07-06T00:23:32.634Z,26.59
2023-07-06T00:25:38.085Z,26.61
2023-07-06T00:27:43.517Z,26.6
2023-07-06T00:29:49.076Z,26.59
2023-07-06T00:31:54.572Z,26.59
2023-07-06T00:34:00.305Z,26.59
2023-07-06T00:36:05.995Z,26.59
2023-07-06T00:38:11.436Z,26.56
2023-07-06T00:40:16.967Z,26.56
2023-07-06T00:42:22.314Z,26.56
2023-07-06T00:44:28.266Z,26.56
2023-07-06T00:46:33.727Z,26.56
2023-07-06T00:48:39.676Z,26.54
2023-07-06T00:50:44.996Z,26.56
2023-07-06T00:52:50.359Z,26.53
2023-07-06T00:54:55.876Z,26.52
2023-07-06T00:57:01.308Z,26.49
2023-07-06T00:59:07.281Z,26.5
2023-07-06T01:01:12.827Z,26.51
2023-07-06T01:03:18.482Z,26.51
2023-07-06T01:05:24.518Z,26.5
2023-07-06T01:07:29.847Z,26.52
2023-07-06T01:09:35.366Z,26.51
2023-07-06T01:13:33.713Z,26.47
2023-07-06T01:15:39.440Z,26.48
2023-07-06T01:17:44.993Z,26.49
2023-07-06T01:19:50.509Z,26.46
2023-07-06T01:21:55.954Z,26.49
2023-07-06T01:24:01.397Z,26.47
2023-07-06T01:26:06.734Z,26.47
2023-07-06T01:28:12.280Z,26.47
2023-07-06T01:30:19.152Z,26.46
2023-07-06T01:32:24.806Z,26.45
2023-07-06T01:34:30.439Z,26.44
2023-07-06T01:36:36.082Z,26.41
2023-07-06T01:38:41.628Z,26.41
2023-07-06T01:40:47.172Z,26.42
2023-07-06T01:42:52.725Z,26.41
2023-07-06T01:44:58.327Z,26.4
2023-07-06T01:47:04.006Z,26.39
2023-07-06T01:49:10.155Z,26.37
2023-07-06T01:51:15.602Z,26.35
2023-07-06T01:53:21.038Z,26.34
2023-07-06T01:55:26.695Z,26.33
2023-07-06T01:57:35.626Z,26.33
2023-07-06T02:00:05.424Z,26.31
2023-07-06T02:02:11.207Z,26.32
2023-07-06T02:04:17.016Z,26.32
2023-07-06T02:06:22.355Z,26.33
2023-07-06T02:08:27.807Z,26.33
2023-07-06T02:10:33.339Z,26.32
2023-07-06T02:12:38.881Z,26.33
2023-07-06T02:14:44.331Z,26.32
2023-07-06T02:16:49.991Z,26.31
2023-07-06T02:18:55.520Z,26.29
2023-07-06T02:21:00.949Z,26.29
2023-07-06T02:23:06.791Z,26.29
2023-07-06T02:25:12.866Z,26.29
2023-07-06T02:27:18.410Z,26.3
2023-07-06T02:29:23.948Z,26.29
2023-07-06T02:31:29.380Z,26.28
2023-07-06T02:33:34.725Z,26.27
2023-07-06T02:35:40.252Z,26.26
2023-07-06T02:37:46.012Z,26.26
2023-07-06T02:39:51.541Z,26.25
2023-07-06T02:41:57.198Z,26.25
2023-07-06T02:44:02.948Z,26.23
2023-07-06T02:46:08.499Z,26.24
2023-07-06T02:48:13.941Z,26.22
2023-07-06T02:50:19.576Z,26.22
2023-07-06T02:52:25.132Z,26.21
2023-07-06T02:54:30.460Z,26.23
2023-07-06T02:56:35.996Z,26.22
2023-07-06T02:58:41.545Z,26.22
2023-07-06T03:00:46.978Z,26.2
2023-07-06T03:02:52.461Z,26.21
2023-07-06T03:04:58.103Z,26.19
2023-07-06T03:07:03.612Z,26.18
2023-07-06T03:09:09.073Z,26.19
2023-07-06T03:11:14.588Z,26.19
2023-07-06T03:13:19.936Z,26.19
2023-07-06T03:15:25.383Z,26.19
2023-07-06T03:17:30.923Z,26.2
2023-07-06T03:19:36.681Z,26.18
2023-07-06T03:21:42.104Z,26.16
2023-07-06T03:23:47.549Z,26.17
2023-07-06T03:25:53.001Z,26.17
2023-07-06T03:27:59.145Z,26.17
2023-07-06T03:30:04.684Z,26.16
2023-07-06T03:32:10.022Z,26.12
2023-07-06T03:34:15.452Z,26.11
2023-07-06T03:36:21.000Z,26.12
2023-07-06T03:38:26.560Z,26.1
2023-07-06T03:40:32.099Z,26.13
2023-07-06T03:42:37.646Z,26.12
2023-07-06T03:44:43.080Z,26.11
2023-07-06T03:46:48.412Z,26.09
2023-07-06T03:48:53.855Z,26.08
2023-07-06T03:50:59.191Z,26.08
2023-07-06T03:53:04.635Z,26.08
2023-07-06T03:55:10.179Z,26.05
2023-07-06T03:57:15.614Z,26.04
2023-07-06T03:59:21.158Z,26.04
2023-07-06T04:01:26.533Z,26.04
2023-07-06T04:03:32.275Z,26.04
2023-07-06T04:05:37.993Z,26.04
2023-07-06T04:07:43.436Z,26.06
2023-07-06T04:09:48.982Z,26.07
2023-07-06T04:11:54.425Z,26.07
2023-07-06T04:14:00.041Z,26.04
2023-07-06T04:16:05.787Z,26.05
2023-07-06T04:18:11.288Z,26.07
2023-07-06T04:20:16.894Z,26.05
2023-07-06T04:22:22.448Z,26.07
2023-07-06T04:24:27.892Z,26.07
2023-07-06T04:26:33.326Z,26.06
2023-07-06T04:28:38.768Z,26.07
2023-07-06T04:30:44.211Z,26.08
2023-07-06T04:32:49.686Z,26.08
2023-07-06T04:34:55.402Z,26.11
2023-07-06T04:37:00.732Z,26.09
2023-07-06T04:39:06.273Z,26.09
2023-07-06T04:41:11.820Z,26.04
2023-07-06T04:43:17.367Z,26.05
2023-07-06T04:45:22.799Z,26.03
2023-07-06T04:47:28.380Z,26.01
2023-07-06T04:49:33.889Z,26.01
2023-07-06T04:51:39.426Z,26.01
2023-07-06T04:53:44.876Z,26.01
2023-07-06T04:55:50.314Z,26
2023-07-06T04:57:57.217Z,25.97
2023-07-06T05:00:03.032Z,25.97
2023-07-06T05:02:08.479Z,25.96
2023-07-06T05:04:14.011Z,25.95
2023-07-06T05:06:19.465Z,25.95
2023-07-06T05:08:24.893Z,25.97
2023-07-06T05:10:30.444Z,25.96
2023-07-06T05:12:35.876Z,25.95
2023-07-06T05:14:41.217Z,25.96
2023-07-06T05:16:49.539Z,25.94
2023-07-06T05:18:55.072Z,25.94
2023-07-06T05:21:00.627Z,25.93
2023-07-06T05:23:06.146Z,25.94
2023-07-06T05:25:11.595Z,25.94
2023-07-06T05:27:16.925Z,25.95
2023-07-06T05:29:22.371Z,25.94
2023-07-06T05:31:27.649Z,25.93
2023-07-06T05:33:33.145Z,25.91
2023-07-06T05:35:38.839Z,25.85
2023-07-06T05:37:44.449Z,25.79
2023-07-06T05:39:49.888Z,25.71
2023-07-06T05:41:55.321Z,25.54
2023-07-06T05:44:01.066Z,25.43
2023-07-06T05:46:06.638Z,25.3
2023-07-06T05:48:12.364Z,25.13
2023-07-06T05:50:17.801Z,24.96
2023-07-06T05:52:23.337Z,24.8
2023-07-06T05:54:28.886Z,24.74
2023-07-06T05:56:34.425Z,24.73
2023-07-06T05:58:39.993Z,24.74
2023-07-06T06:00:45.519Z,24.74
2023-07-06T06:02:51.083Z,24.69
2023-07-06T06:04:56.700Z,24.6
2023-07-06T06:07:02.144Z,24.54
2023-07-06T06:09:07.686Z,24.5
2023-07-06T06:11:13.125Z,24.61
2023-07-06T06:13:18.595Z,24.75
2023-07-06T06:15:24.102Z,24.83
2023-07-06T06:17:29.585Z,24.89
2023-07-06T06:19:35.195Z,24.92
2023-07-06T06:21:40.630Z,24.96
2023-07-06T06:23:46.153Z,25.04
2023-07-06T06:25:51.723Z,25.15
2023-07-06T06:27:57.575Z,25.26
2023-07-06T06:30:02.920Z,25.37
2023-07-06T06:32:08.536Z,25.44
2023-07-06T06:34:14.296Z,25.49
2023-07-06T06:36:19.841Z,25.52
2023-07-06T06:38:25.092Z,25.56
2023-07-06T06:40:30.768Z,25.61
2023-07-06T06:42:36.164Z,25.65
2023-07-06T06:44:41.609Z,25.69
2023-07-06T06:46:47.217Z,25.73
2023-07-06T06:48:52.798Z,25.75
2023-07-06T06:50:58.344Z,25.78
2023-07-06T06:53:03.731Z,25.83
2023-07-06T06:55:09.428Z,25.82
2023-07-06T06:57:14.882Z,25.84
2023-07-06T06:59:20.416Z,25.84
2023-07-06T07:01:25.946Z,25.83
2023-07-06T07:03:31.519Z,25.82
2023-07-06T07:05:37.150Z,25.84
2023-07-06T07:07:42.692Z,25.84
2023-07-06T07:09:48.130Z,25.83
2023-07-06T07:11:53.608Z,25.82
2023-07-06T07:13:59.458Z,25.83
2023-07-06T07:16:05.091Z,25.82
2023-07-06T07:18:10.619Z,25.82
2023-07-06T07:20:16.241Z,25.81
2023-07-06T07:22:21.686Z,25.8
2023-07-06T07:24:27.148Z,25.8
2023-07-06T07:26:32.659Z,25.81
2023-07-06T07:28:37.997Z,25.81
2023-07-06T07:30:43.452Z,25.82
2023-07-06T07:32:49.005Z,25.82
2023-07-06T07:34:54.735Z,25.82
2023-07-06T07:37:00.176Z,25.84
2023-07-06T07:39:05.623Z,25.84
2023-07-06T07:41:11.082Z,25.86
2023-07-06T07:43:16.501Z,25.86
2023-07-06T07:45:21.960Z,25.86
2023-07-06T07:47:27.427Z,25.87
2023-07-06T07:49:33.125Z,25.86
2023-07-06T07:51:38.672Z,25.87
2023-07-06T07:53:44.206Z,25.87
2023-07-06T07:55:49.964Z,25.86
2023-07-06T07:57:55.504Z,25.86
2023-07-06T08:00:00.959Z,25.86
2023-07-06T08:02:06.639Z,25.87
2023-07-06T08:04:12.122Z,25.85
2023-07-06T08:06:17.785Z,25.87
2023-07-06T08:08:23.435Z,25.85
2023-07-06T08:10:28.871Z,25.84
2023-07-06T08:12:34.298Z,25.86
2023-07-06T08:14:39.640Z,25.88
2023-07-06T08:16:45.073Z,25.87
2023-07-06T08:18:51.146Z,25.89
2023-07-06T08:22:09.874Z,25.92
2023-07-06T08:24:15.810Z,25.92
2023-07-06T08:26:21.095Z,25.93
2023-07-06T08:28:26.941Z,25.93
2023-07-06T08:30:32.370Z,25.95
2023-07-06T08:32:37.856Z,25.95
2023-07-06T08:34:43.355Z,25.97
2023-07-06T08:36:48.804Z,25.99
2023-07-06T08:38:54.233Z,26.01
2023-07-06T08:40:59.709Z,25.99
2023-07-06T08:43:05.120Z,26
2023-07-06T08:45:10.569Z,26
2023-07-06T08:47:16.105Z,26.01
2023-07-06T08:49:21.640Z,26
2023-07-06T08:51:30.806Z,26.01
2023-07-06T08:53:36.416Z,26.04
2023-07-06T08:55:41.753Z,26.05
2023-07-06T08:57:47.300Z,26.06
2023-07-06T08:59:52.841Z,26.08
2023-07-06T09:01:58.381Z,26.1
2023-07-06T09:04:03.740Z,26.11
2023-07-06T09:06:09.259Z,26.13
2023-07-06T09:08:14.897Z,26.14
2023-07-06T09:10:24.794Z,26.14
2023-07-06T09:12:31.321Z,26.16
2023-07-06T09:14:36.860Z,26.16
2023-07-06T09:16:42.428Z,26.18
2023-07-06T09:18:48.043Z,26.19
2023-07-06T09:20:53.495Z,26.21
2023-07-06T09:22:58.939Z,26.2
2023-07-06T09:25:04.471Z,26.21
2023-07-06T09:27:09.821Z,26.24
2023-07-06T09:29:15.286Z,26.27
2023-07-06T09:31:21.024Z,26.28
2023-07-06T09:33:26.748Z,26.3
2023-07-06T09:35:35.983Z,26.31
2023-07-06T09:37:41.728Z,26.34
2023-07-06T09:39:47.272Z,26.36
2023-07-06T09:41:52.712Z,26.35
2023-07-06T09:43:58.399Z,26.35
2023-07-06T09:46:04.578Z,26.36
2023-07-06T09:48:11.303Z,26.37
2023-07-06T09:50:16.852Z,26.36
2023-07-06T09:52:22.482Z,26.37
2023-07-06T09:54:27.910Z,26.37
2023-07-06T09:56:33.463Z,26.39
2023-07-06T09:58:38.786Z,26.37
2023-07-06T10:00:44.237Z,26.4
2023-07-06T10:02:49.813Z,26.38
2023-07-06T10:04:55.474Z,26.41
2023-07-06T10:07:00.859Z,26.44
2023-07-06T10:09:06.303Z,26.45
2023-07-06T10:11:11.855Z,26.42
2023-07-06T10:13:17.398Z,26.42
2023-07-06T10:15:22.937Z,26.42
2023-07-06T10:17:28.419Z,26.42
2023-07-06T10:19:34.012Z,26.43
2023-07-06T10:21:39.354Z,26.44
2023-07-06T10:23:44.996Z,26.46
2023-07-06T10:25:50.547Z,26.48
2023-07-06T10:27:56.182Z,26.48
2023-07-06T10:30:01.723Z,26.49
2023-07-06T10:32:07.148Z,26.46
2023-07-06T10:34:12.942Z,26.47
2023-07-06T10:36:18.360Z,26.46
2023-07-06T10:38:23.902Z,26.46
2023-07-06T10:40:29.545Z,26.47
2023-07-06T10:42:34.994Z,26.49
2023-07-06T10:44:40.530Z,26.48
2023-07-06T10:46:46.065Z,26.44
2023-07-06T10:48:51.614Z,26.37
2023-07-06T10:50:57.159Z,26.38
2023-07-06T10:53:02.593Z,26.43
2023-07-06T10:55:08.125Z,26.44
2023-07-06T10:57:13.384Z,26.48
2023-07-06T10:59:18.718Z,26.51
2023-07-06T11:01:24.149Z,26.54
2023-07-06T11:03:29.786Z,26.56
2023-07-06T11:05:37.508Z,26.56
2023-07-06T11:07:43.532Z,26.5
2023-07-06T11:09:49.002Z,26.51
2023-07-06T11:11:54.439Z,26.53
2023-07-06T11:14:00.109Z,26.55
2023-07-06T11:16:06.816Z,26.57
2023-07-06T11:18:12.711Z,26.58
2023-07-06T11:20:18.039Z,26.56
2023-07-06T11:22:23.480Z,26.53
2023-07-06T11:24:29.038Z,26.55
2023-07-06T11:26:34.499Z,26.56
2023-07-06T11:28:40.019Z,26.58
2023-07-06T11:30:45.449Z,26.57
2023-07-06T11:32:51.016Z,26.59
2023-07-06T11:34:56.639Z,26.63
2023-07-06T11:37:02.283Z,26.64
2023-07-06T11:39:07.893Z,26.66
2023-07-06T11:41:13.472Z,26.68
2023-07-06T11:43:18.824Z,26.71
2023-07-06T11:45:24.663Z,26.74
2023-07-06T11:47:30.442Z,26.75
2023-07-06T11:49:35.992Z,26.78
2023-07-06T11:51:41.390Z,26.81
2023-07-06T11:53:46.838Z,26.81
2023-07-06T11:55:52.399Z,26.81
2023-07-06T11:57:58.328Z,26.76
2023-07-06T12:00:03.743Z,26.81
2023-07-06T12:02:09.417Z,26.85
2023-07-06T12:04:14.965Z,26.81
2023-07-06T12:06:20.702Z,26.75
2023-07-06T12:08:26.221Z,26.69
2023-07-06T12:10:31.989Z,26.72
2023-07-06T12:12:37.391Z,26.77
2023-07-06T12:14:42.807Z,26.79
2023-07-06T12:16:48.216Z,26.85
2023-07-06T12:18:53.762Z,26.85
2023-07-06T12:20:59.447Z,26.84
2023-07-06T12:23:08.130Z,26.88
2023-07-06T12:25:13.665Z,26.95
2023-07-06T12:27:19.298Z,26.99
2023-07-06T12:29:24.877Z,26.95
2023-07-06T12:31:30.434Z,26.96
2023-07-06T12:33:36.461Z,26.88
2023-07-06T12:35:41.891Z,26.91
2023-07-06T12:37:47.539Z,26.95
2023-07-06T12:39:52.988Z,26.99
2023-07-06T12:41:58.734Z,27
2023-07-06T12:44:04.264Z,26.99
2023-07-06T12:46:09.672Z,27.01
2023-07-06T12:48:15.448Z,27.02
2023-07-06T12:50:20.857Z,27.05
2023-07-06T12:52:26.224Z,27.05
2023-07-06T12:54:32.099Z,27.03
2023-07-06T12:56:37.413Z,27.03
2023-07-06T12:58:42.754Z,26.98
2023-07-06T13:00:48.254Z,26.92
2023-07-06T13:02:53.968Z,26.83
2023-07-06T13:04:59.691Z,26.81
2023-07-06T13:07:05.134Z,26.81
2023-07-06T13:09:10.582Z,26.81
2023-07-06T13:11:16.006Z,26.82
2023-07-06T13:13:21.609Z,26.82
2023-07-06T13:15:27.255Z,26.82
2023-07-06T13:17:32.741Z,26.83
2023-07-06T13:19:38.545Z,26.8
2023-07-06T13:21:44.241Z,26.76
2023-07-06T13:23:49.697Z,26.78
2023-07-06T13:25:55.556Z,26.81
2023-07-06T13:28:02.619Z,26.83
2023-07-06T13:30:08.192Z,26.81
2023-07-06T13:32:15.270Z,26.79
2023-07-06T13:34:24.408Z,26.76
2023-07-06T13:36:30.065Z,26.68
2023-07-06T13:38:35.367Z,26.65
2023-07-06T13:40:40.803Z,26.66
2023-07-06T13:42:46.852Z,26.69
2023-07-06T13:44:52.642Z,26.71
2023-07-06T13:46:58.146Z,26.78
2023-07-06T13:49:03.579Z,26.83
2023-07-06T13:51:09.224Z,26.86
2023-07-06T13:53:14.673Z,26.88
2023-07-06T13:55:20.096Z,26.89
2023-07-06T13:57:25.862Z,26.92
2023-07-06T13:59:31.400Z,26.95
2023-07-06T14:01:37.102Z,26.99
2023-07-06T14:03:42.862Z,27.02
2023-07-06T14:05:48.949Z,27.06
2023-07-06T14:07:54.462Z,27.07
2023-07-06T14:10:00.229Z,27.1
2023-07-06T14:12:06.088Z,27.14
2023-07-06T14:14:11.739Z,27.17
2023-07-06T14:16:17.628Z,27.19
2023-07-06T14:18:23.156Z,27.19
2023-07-06T14:20:28.679Z,27.21
2023-07-06T14:22:34.422Z,27.24
2023-07-06T14:24:39.853Z,27.24
2023-07-06T14:26:45.603Z,27.25
2023-07-06T14:28:51.245Z,27.25
2023-07-06T14:30:56.802Z,27.26
2023-07-06T14:33:02.371Z,27.26
2023-07-06T14:35:08.095Z,27.28
2023-07-06T14:37:13.628Z,27.28
2023-07-06T14:39:19.569Z,27.3
2023-07-06T14:41:25.228Z,27.3
2023-07-06T14:43:33.384Z,27.32
2023-07-06T14:45:39.241Z,27.34
2023-07-06T14:47:44.834Z,27.36
2023-07-06T14:49:50.581Z,27.34
2023-07-06T14:51:56.013Z,27.36
2023-07-06T14:54:01.547Z,27.36
2023-07-06T14:56:06.996Z,27.37
2023-07-06T14:58:12.541Z,27.37
2023-07-06T15:00:18.116Z,27.37
2023-07-06T15:02:23.673Z,27.33
2023-07-06T15:04:29.270Z,27.33
2023-07-06T15:06:34.812Z,27.34
2023-07-06T15:08:40.356Z,27.34
2023-07-06T15:10:45.796Z,27.33
2023-07-06T15:12:51.454Z,27.32
2023-07-06T15:14:57.192Z,27.34
2023-07-06T15:17:02.743Z,27.36
2023-07-06T15:19:08.302Z,27.39
2023-07-06T15:21:13.827Z,27.41
2023-07-06T15:23:19.184Z,27.41
2023-07-06T15:25:24.906Z,27.41
2023-07-06T15:27:30.450Z,27.41
2023-07-06T15:29:35.996Z,27.43
2023-07-06T15:31:41.661Z,27.44
2023-07-06T15:33:47.186Z,27.44
2023-07-06T15:35:52.728Z,27.45
2023-07-06T15:37:58.677Z,27.47
2023-07-06T15:40:04.027Z,27.47
2023-07-06T15:42:09.661Z,27.49
2023-07-06T15:44:15.098Z,27.49
2023-07-06T15:46:20.659Z,27.49
2023-07-06T15:48:26.509Z,27.48
2023-07-06T15:50:32.152Z,27.41
2023-07-06T15:52:37.692Z,27.4
2023-07-06T15:54:43.158Z,27.34
2023-07-06T15:56:48.580Z,27.25
2023-07-06T15:58:54.007Z,27.13
2023-07-06T16:00:59.466Z,27.08
2023-07-06T16:03:05.373Z,27.02
2023-07-06T16:05:11.150Z,26.99
2023-07-06T16:07:22.533Z,26.95
2023-07-06T16:09:30.839Z,26.88
2023-07-06T16:11:36.280Z,26.85
2023-07-06T16:13:41.748Z,26.81
2023-07-06T16:15:47.337Z,26.79
2023-07-06T16:17:53.047Z,26.78
2023-07-06T16:19:58.904Z,26.76
2023-07-06T16:22:04.546Z,26.74
2023-07-06T16:24:10.177Z,26.73
2023-07-06T16:26:15.727Z,26.71
2023-07-06T16:28:21.123Z,26.71
2023-07-06T16:30:26.704Z,26.7
2023-07-06T16:32:32.301Z,26.67
2023-07-06T16:34:38.007Z,26.65
2023-07-06T16:36:43.541Z,26.63
2023-07-06T16:38:48.987Z,26.61
2023-07-06T16:40:54.535Z,26.61
2023-07-06T16:42:59.957Z,26.58
2023-07-06T16:45:05.300Z,26.56
2023-07-06T16:47:10.836Z,26.58
2023-07-06T16:49:16.290Z,26.6
2023-07-06T16:51:21.717Z,26.62
2023-07-06T16:53:27.164Z,26.64
2023-07-06T16:55:32.607Z,26.66
2023-07-06T16:57:38.178Z,26.64
2023-07-06T16:59:43.635Z,26.65
2023-07-06T17:01:49.311Z,26.62
2023-07-06T17:03:55.099Z,26.67
2023-07-06T17:06:00.732Z,26.69
2023-07-06T17:08:06.578Z,26.7
2023-07-06T17:10:12.127Z,26.68
2023-07-06T17:12:17.458Z,26.68
2023-07-06T17:14:22.940Z,26.75
2023-07-06T17:16:28.543Z,26.77
2023-07-06T17:18:33.994Z,26.76
2023-07-06T17:20:39.546Z,26.77
2023-07-06T17:22:45.429Z,26.76
2023-07-06T17:24:52.907Z,26.76
2023-07-06T17:26:58.321Z,26.79
2023-07-06T17:29:03.847Z,26.8
2023-07-06T17:31:09.294Z,26.9
2023-07-06T17:33:15.052Z,26.91
2023-07-06T17:35:20.480Z,26.94
2023-07-06T17:37:25.833Z,26.94
2023-07-06T17:39:31.367Z,26.91
2023-07-06T17:41:36.811Z,26.92
2023-07-06T17:43:43.578Z,26.9
2023-07-06T17:45:49.179Z,26.89
2023-07-06T17:47:54.776Z,26.89
2023-07-06T17:50:00.608Z,26.87
2023-07-06T17:52:06.160Z,26.85
2023-07-06T17:54:11.494Z,26.83
2023-07-06T17:56:16.935Z,26.82
2023-07-06T17:58:22.395Z,26.8
2023-07-06T18:00:27.825Z,26.76
2023-07-06T18:02:33.408Z,26.79
2023-07-06T18:04:39.060Z,26.78
2023-07-06T18:06:44.549Z,26.79
2023-07-06T18:08:50.409Z,26.79
2023-07-06T18:10:55.746Z,26.8
2023-07-06T18:13:01.196Z,26.81
2023-07-06T18:15:06.716Z,26.79
2023-07-06T18:17:12.167Z,26.8
2023-07-06T18:19:17.906Z,26.8
2023-07-06T18:21:23.372Z,26.8
2023-07-06T18:23:28.909Z,26.82
2023-07-06T18:25:34.331Z,26.85
2023-07-06T18:27:39.776Z,26.87
2023-07-06T18:29:45.309Z,26.85
2023-07-06T18:31:51.056Z,26.86
2023-07-06T18:33:56.613Z,26.87
2023-07-06T18:36:02.170Z,26.86
2023-07-06T18:38:07.591Z,26.87
2023-07-06T18:40:13.028Z,26.89
2023-07-06T18:42:18.369Z,26.94
2023-07-06T18:44:23.711Z,26.97
2023-07-06T18:46:29.172Z,26.92
2023-07-06T18:48:34.740Z,26.87
2023-07-06T18:50:40.231Z,26.86
2023-07-06T18:52:45.819Z,26.87
2023-07-06T18:54:51.415Z,26.86
2023-07-06T18:56:56.861Z,26.83
2023-07-06T18:59:02.197Z,26.82
2023-07-06T19:01:07.627Z,26.79
2023-07-06T19:03:13.247Z,26.81
2023-07-06T19:05:18.943Z,26.8
2023-07-06T19:07:24.498Z,26.8
2023-07-06T19:09:29.811Z,26.78
2023-07-06T19:11:35.254Z,26.77
2023-07-06T19:13:40.727Z,26.76
2023-07-06T19:15:46.456Z,26.7
2023-07-06T19:17:52.052Z,26.68
2023-07-06T19:19:57.853Z,26.69
2023-07-06T19:22:03.301Z,26.71
2023-07-06T19:24:09.089Z,26.7
2023-07-06T19:26:14.483Z,26.69
2023-07-06T19:28:20.214Z,26.61
2023-07-06T19:30:25.770Z,26.55
2023-07-06T19:32:31.207Z,26.5
2023-07-06T19:34:36.745Z,26.43
2023-07-06T19:36:42.579Z,26.36
2023-07-06T19:38:48.243Z,26.28
2023-07-06T19:40:53.688Z,26.19
2023-07-06T19:42:59.230Z,26.18
2023-07-06T19:45:04.735Z,26.14
2023-07-06T19:47:10.243Z,26.17
2023-07-06T19:49:15.970Z,26.16
2023-07-06T19:51:22.018Z,26.2
2023-07-06T19:53:27.560Z,26.23
2023-07-06T19:55:32.904Z,26.25
2023-07-06T19:57:44.694Z,26.31
2023-07-06T19:59:50.844Z,26.31
2023-07-06T20:01:56.318Z,26.32
2023-07-06T20:04:03.165Z,26.32
2023-07-06T20:06:08.488Z,26.32
2023-07-06T20:08:13.878Z,26.32
2023-07-06T20:10:19.264Z,26.32
2023-07-06T20:12:24.503Z,26.29
2023-07-06T20:14:30.048Z,26.32
2023-07-06T20:16:35.523Z,26.32
2023-07-06T20:18:41.336Z,26.33
2023-07-06T20:20:46.789Z,26.38
2023-07-06T20:22:52.213Z,26.37
2023-07-06T20:24:57.660Z,26.35
2023-07-06T20:27:02.999Z,26.29
2023-07-06T20:29:08.262Z,26.25
2023-07-06T20:31:13.741Z,26.12
2023-07-06T20:33:19.238Z,26.05
2023-07-06T20:35:24.957Z,25.98
2023-07-06T20:37:30.401Z,25.89
2023-07-06T20:39:35.846Z,25.8
2023-07-06T20:41:41.380Z,25.78
2023-07-06T20:43:47.036Z,25.86
2023-07-06T20:45:52.677Z,25.98
2023-07-06T20:47:58.016Z,26.05
2023-07-06T20:50:03.632Z,26.12
2023-07-06T20:52:09.102Z,26.17
2023-07-06T20:54:14.549Z,26.18
2023-07-06T20:56:20.083Z,26.25
2023-07-06T20:58:25.547Z,26.26
2023-07-06T21:00:31.067Z,26.31
2023-07-06T21:02:36.565Z,26.32
2023-07-06T21:04:42.058Z,26.34
2023-07-06T21:06:47.532Z,26.33
2023-07-06T21:08:53.138Z,26.36
2023-07-06T21:10:58.894Z,26.35
2023-07-06T21:13:04.651Z,26.31
2023-07-06T21:15:10.113Z,26.33
2023-07-06T21:17:15.625Z,26.44
2023-07-06T21:19:21.271Z,26.54
2023-07-06T21:21:26.667Z,26.62
2023-07-06T21:23:32.357Z,26.68
2023-07-06T21:25:37.890Z,26.73
2023-07-06T21:27:43.342Z,26.75
2023-07-06T21:29:48.986Z,26.78
2023-07-06T21:31:54.459Z,26.79
2023-07-06T21:34:00.055Z,26.82
2023-07-06T21:36:05.400Z,26.84
2023-07-06T21:38:11.049Z,26.86
2023-07-06T21:40:16.496Z,26.87
2023-07-06T21:42:22.030Z,26.88
2023-07-06T21:44:27.571Z,26.9
2023-07-06T21:46:33.093Z,26.92
2023-07-06T21:48:38.864Z,26.93
2023-07-06T21:50:44.407Z,26.93
2023-07-06T21:52:49.950Z,26.96
2023-07-06T21:54:55.599Z,26.96
2023-07-06T21:57:01.138Z,26.96
2023-07-06T21:59:06.891Z,26.93
2023-07-06T22:01:12.458Z,26.94
2023-07-06T22:03:17.978Z,26.96
2023-07-06T22:05:23.522Z,26.98
2023-07-06T22:07:29.057Z,26.98
2023-07-06T22:09:34.410Z,26.98
2023-07-06T22:11:39.952Z,26.99
2023-07-06T22:13:45.602Z,27
2023-07-06T22:15:51.601Z,27.01
2023-07-06T22:17:57.149Z,26.99
2023-07-06T22:20:02.838Z,27
2023-07-06T22:22:08.289Z,27
2023-07-06T22:24:13.703Z,27.01
2023-07-06T22:26:19.253Z,27.01
2023-07-06T22:28:24.695Z,27.01
2023-07-06T22:30:30.331Z,27
2023-07-06T22:32:35.888Z,27.01
2023-07-06T22:34:41.441Z,27.02
2023-07-06T22:36:46.867Z,27.01
2023-07-06T22:38:52.400Z,27.01
2023-07-06T22:40:57.866Z,27.02
2023-07-06T22:43:03.811Z,27.01
2023-07-06T22:45:09.247Z,27.01
2023-07-06T22:47:14.792Z,27
2023-07-06T22:49:20.333Z,27.01
2023-07-06T22:51:25.772Z,27
2023-07-06T22:53:31.582Z,27.01
2023-07-06T22:55:37.167Z,27
2023-07-06T22:57:42.606Z,27
2023-07-06T22:59:47.948Z,26.99
2023-07-06T23:01:53.566Z,26.98
2023-07-06T23:03:59.683Z,26.97
2023-07-06T23:06:05.612Z,26.97
2023-07-06T23:08:11.025Z,26.95
2023-07-06T23:10:16.673Z,26.97
2023-07-06T23:12:22.325Z,26.98
2023-07-06T23:14:27.765Z,26.97
2023-07-06T23:16:33.430Z,26.99
2023-07-06T23:18:38.864Z,26.98
2023-07-06T23:20:44.284Z,26.99
2023-07-06T23:22:49.727Z,26.98
2023-07-06T23:24:55.231Z,26.99
2023-07-06T23:27:00.814Z,27
2023-07-06T23:29:06.248Z,26.98
2023-07-06T23:31:11.729Z,26.97
2023-07-06T23:33:17.343Z,26.98
2023-07-06T23:35:22.943Z,26.97
2023-07-06T23:37:28.440Z,26.97
2023-07-06T23:39:33.870Z,26.97
2023-07-06T23:41:39.313Z,26.97
2023-07-06T23:43:44.756Z,26.97
2023-07-06T23:45:50.305Z,26.98
2023-07-06T23:47:55.871Z,26.97
2023-07-06T23:50:01.389Z,27
2023-07-06T23:52:07.131Z,26.99
2023-07-06T23:54:12.583Z,27
2023-07-06T23:56:18.229Z,26.99
2023-07-06T23:58:23.593Z,26.99
